sensor_id;sensor_type;location;lat;lon;timestamp;pressure;altitude;pressure_sealevel;temperature;humidity
62849;BME280;48941;49.516;8.286;2023-02-16T00:01:43;101565.88;;;0.34;100.00
62849;BME280;48941;49.516;8.286;2023-02-16T00:04:15;101559.91;;;0.26;100.00
62849;BME280;48941;49.516;8.286;2023-02-16T00:06:44;101573.91;;;0.25;100.00
62849;BME280;48941;49.516;8.286;2023-02-16T00:09:12;101576.47;;;0.28;100.00
62849;BME280;48941;49.516;8.286;2023-02-16T00:11:40;101563.41;;;0.25;100.00
62849;BME280;48941;49.516;8.286;2023-02-16T00:14:26;101574.88;;;0.19;100.00
62849;BME280;48941;49.516;8.286;2023-02-16T00:16:57;101573.19;;;0.17;100.00
62849;BME280;48941;49.516;8.286;2023-02-16T00:19:27;101572.31;;;0.16;100.00
62849;BME280;48941;49.516;8.286;2023-02-16T00:21:57;101573.28;;;0.12;100.00
62849;BME280;48941;49.516;8.286;2023-02-16T00:24:26;101571.41;;;0.17;100.00
62849;BME280;48941;49.516;8.286;2023-02-16T00:26:55;101577.50;;;0.18;100.00
62849;BME280;48941;49.516;8.286;2023-02-16T00:29:26;101561.78;;;0.19;100.00
62849;BME280;48941;49.516;8.286;2023-02-16T00:31:57;101563.50;;;0.21;100.00
62849;BME280;48941;49.516;8.286;2023-02-16T00:34:31;101581.84;;;0.22;100.00
62849;BME280;48941;49.516;8.286;2023-02-16T00:37:02;101577.50;;;0.18;100.00
62849;BME280;48941;49.516;8.286;2023-02-16T00:39:30;101568.75;;;0.21;100.00
62849;BME280;48941;49.516;8.286;2023-02-16T00:42:00;101556.63;;;0.15;100.00
62849;BME280;48941;49.516;8.286;2023-02-16T00:44:32;101557.59;;;0.09;100.00
62849;BME280;48941;49.516;8.286;2023-02-16T00:47:05;101554.00;;;0.15;100.00
62849;BME280;48941;49.516;8.286;2023-02-16T00:49:39;101569.72;;;0.16;100.00
62849;BME280;48941;49.516;8.286;2023-02-16T00:52:22;101574.88;;;0.18;100.00
62849;BME280;48941;49.516;8.286;2023-02-16T00:54:51;101580.22;;;0.15;100.00
62849;BME280;48941;49.516;8.286;2023-02-16T00:57:19;101573.34;;;0.08;100.00
62849;BME280;48941;49.516;8.286;2023-02-16T00:59:56;101560.19;;;0.11;100.00
62849;BME280;48941;49.516;8.286;2023-02-16T01:02:28;101563.75;;;0.08;100.00
62849;BME280;48941;49.516;8.286;2023-02-16T01:04:56;101572.50;;;0.06;100.00
62849;BME280;48941;49.516;8.286;2023-02-16T01:07:23;101574.25;;;0.05;100.00
62849;BME280;48941;49.516;8.286;2023-02-16T01:10:09;101580.31;;;0.09;100.00
62849;BME280;48941;49.516;8.286;2023-02-16T01:12:55;101581.19;;;0.08;100.00
62849;BME280;48941;49.516;8.286;2023-02-16T01:15:23;101566.53;;;-0.03;100.00
62849;BME280;48941;49.516;8.286;2023-02-16T01:17:54;101562.25;;;-0.07;100.00
62849;BME280;48941;49.516;8.286;2023-02-16T01:20:23;101575.31;;;-0.04;100.00
62849;BME280;48941;49.516;8.286;2023-02-16T01:22:51;101578.69;;;0.02;100.00
62849;BME280;48941;49.516;8.286;2023-02-16T01:25:18;101576.06;;;0.02;100.00
62849;BME280;48941;49.516;8.286;2023-02-16T01:27:47;101571.63;;;0.05;100.00
62849;BME280;48941;49.516;8.286;2023-02-16T01:30:18;101568.97;;;0.08;100.00
62849;BME280;48941;49.516;8.286;2023-02-16T01:32:47;101573.31;;;0.09;100.00
62849;BME280;48941;49.516;8.286;2023-02-16T01:35:19;101569.72;;;0.15;100.00
62849;BME280;48941;49.516;8.286;2023-02-16T01:37:48;101560.06;;;0.18;100.00
62849;BME280;48941;49.516;8.286;2023-02-16T01:40:24;101558.28;;;0.21;100.00
62849;BME280;48941;49.516;8.286;2023-02-16T01:42:57;101559.97;;;0.23;100.00
62849;BME280;48941;49.516;8.286;2023-02-16T01:45:31;101554.69;;;0.26;100.00
62849;BME280;48941;49.516;8.286;2023-02-16T01:48:02;101552.06;;;0.26;100.00
62849;BME280;48941;49.516;8.286;2023-02-16T01:50:41;101546.81;;;0.26;100.00
62849;BME280;48941;49.516;8.286;2023-02-16T01:53:16;101536.34;;;0.25;100.00
62849;BME280;48941;49.516;8.286;2023-02-16T01:55:47;101539.09;;;0.18;100.00
62849;BME280;48941;49.516;8.286;2023-02-16T01:58:30;101533.88;;;0.17;100.00
62849;BME280;48941;49.516;8.286;2023-02-16T02:01:30;101533.91;;;0.14;100.00
62849;BME280;48941;49.516;8.286;2023-02-16T02:04:09;101531.50;;;0.05;100.00
62849;BME280;48941;49.516;8.286;2023-02-16T02:06:57;101538.50;;;0.04;100.00
62849;BME280;48941;49.516;8.286;2023-02-16T02:09:30;101529.72;;;0.07;100.00
62849;BME280;48941;49.516;8.286;2023-02-16T02:12:07;101532.47;;;-0.01;100.00
62849;BME280;48941;49.516;8.286;2023-02-16T02:14:38;101542.09;;;-0.03;100.00
62849;BME280;48941;49.516;8.286;2023-02-16T02:17:10;101529.81;;;0.02;100.00
62849;BME280;48941;49.516;8.286;2023-02-16T02:19:46;101533.28;;;0.03;100.00
62849;BME280;48941;49.516;8.286;2023-02-16T02:22:36;101528.06;;;-0.01;100.00
62849;BME280;48941;49.516;8.286;2023-02-16T02:25:51;101515.88;;;0.00;100.00
62849;BME280;48941;49.516;8.286;2023-02-16T02:28:25;101516.75;;;-0.01;100.00
62849;BME280;48941;49.516;8.286;2023-02-16T02:30:59;101520.28;;;-0.04;100.00
62849;BME280;48941;49.516;8.286;2023-02-16T02:33:41;101523.03;;;-0.10;100.00
62849;BME280;48941;49.516;8.286;2023-02-16T02:36:23;101522.13;;;-0.10;100.00
62849;BME280;48941;49.516;8.286;2023-02-16T02:39:03;101525.66;;;-0.10;100.00
62849;BME280;48941;49.516;8.286;2023-02-16T02:41:40;101522.97;;;-0.08;100.00
62849;BME280;48941;49.516;8.286;2023-02-16T02:44:32;101523.13;;;-0.16;100.00
62849;BME280;48941;49.516;8.286;2023-02-16T02:47:04;101522.19;;;-0.12;100.00
62849;BME280;48941;49.516;8.286;2023-02-16T02:49:32;101518.78;;;-0.17;100.00
62849;BME280;48941;49.516;8.286;2023-02-16T02:52:00;101530.09;;;-0.16;100.00
62849;BME280;48941;49.516;8.286;2023-02-16T02:54:30;101517.81;;;-0.13;100.00
62849;BME280;48941;49.516;8.286;2023-02-16T02:57:33;101516.06;;;-0.12;100.00
62849;BME280;48941;49.516;8.286;2023-02-16T03:00:27;101524.72;;;-0.07;100.00
62849;BME280;48941;49.516;8.286;2023-02-16T03:03:14;101530.88;;;-0.10;100.00
62849;BME280;48941;49.516;8.286;2023-02-16T03:05:47;101520.44;;;-0.13;100.00
62849;BME280;48941;49.516;8.286;2023-02-16T03:08:21;101524.81;;;-0.12;100.00
62849;BME280;48941;49.516;8.286;2023-02-16T03:10:53;101521.25;;;-0.08;100.00
62849;BME280;48941;49.516;8.286;2023-02-16T03:13:42;101526.50;;;-0.09;100.00
62849;BME280;48941;49.516;8.286;2023-02-16T03:16:19;101527.34;;;-0.09;100.00
62849;BME280;48941;49.516;8.286;2023-02-16T03:18:48;101526.38;;;-0.02;100.00
62849;BME280;48941;49.516;8.286;2023-02-16T03:21:33;101526.25;;;0.05;100.00
62849;BME280;48941;49.516;8.286;2023-02-16T03:24:21;101520.91;;;0.09;100.00
62849;BME280;48941;49.516;8.286;2023-02-16T03:27:08;101522.56;;;0.15;100.00
62849;BME280;48941;49.516;8.286;2023-02-16T03:29:54;101515.50;;;0.20;100.00
62849;BME280;48941;49.516;8.286;2023-02-16T03:32:25;101518.91;;;0.24;100.00
62849;BME280;48941;49.516;8.286;2023-02-16T03:34:52;101514.47;;;0.26;100.00
62849;BME280;48941;49.516;8.286;2023-02-16T03:37:20;101512.75;;;0.26;100.00
62849;BME280;48941;49.516;8.286;2023-02-16T03:39:48;101518.88;;;0.25;100.00
62849;BME280;48941;49.516;8.286;2023-02-16T03:42:33;101509.31;;;0.23;100.00
62849;BME280;48941;49.516;8.286;2023-02-16T03:45:01;101513.66;;;0.24;100.00
62849;BME280;48941;49.516;8.286;2023-02-16T03:47:30;101505.91;;;0.17;100.00
62849;BME280;48941;49.516;8.286;2023-02-16T03:49:58;101509.47;;;0.15;100.00
62849;BME280;48941;49.516;8.286;2023-02-16T03:52:26;101515.53;;;0.17;100.00
62849;BME280;48941;49.516;8.286;2023-02-16T03:54:54;101519.00;;;0.17;100.00
62849;BME280;48941;49.516;8.286;2023-02-16T03:57:21;101533.03;;;0.15;100.00
62849;BME280;48941;49.516;8.286;2023-02-16T03:59:49;101535.66;;;0.15;100.00
62849;BME280;48941;49.516;8.286;2023-02-16T04:02:17;101535.53;;;0.21;100.00
62849;BME280;48941;49.516;8.286;2023-02-16T04:04:47;101535.56;;;0.19;100.00
62849;BME280;48941;49.516;8.286;2023-02-16T04:07:14;101532.97;;;0.18;100.00
62849;BME280;48941;49.516;8.286;2023-02-16T04:09:42;101531.22;;;0.20;100.00
62849;BME280;48941;49.516;8.286;2023-02-16T04:12:10;101531.16;;;0.22;100.00
62849;BME280;48941;49.516;8.286;2023-02-16T04:14:56;101523.41;;;0.15;100.00
62849;BME280;48941;49.516;8.286;2023-02-16T04:17:24;101520.94;;;0.08;100.00
62849;BME280;48941;49.516;8.286;2023-02-16T04:19:53;101520.94;;;0.08;100.00
62849;BME280;48941;49.516;8.286;2023-02-16T04:22:21;101518.31;;;0.08;100.00
62849;BME280;48941;49.516;8.286;2023-02-16T04:24:48;101527.06;;;0.08;100.00
62849;BME280;48941;49.516;8.286;2023-02-16T04:27:16;101525.44;;;0.01;100.00
62849;BME280;48941;49.516;8.286;2023-02-16T04:29:44;101527.25;;;-0.04;100.00
62849;BME280;48941;49.516;8.286;2023-02-16T04:32:12;101532.59;;;-0.09;100.00
62849;BME280;48941;49.516;8.286;2023-02-16T04:34:40;101534.34;;;-0.08;100.00
62849;BME280;48941;49.516;8.286;2023-02-16T04:37:09;101533.44;;;-0.08;100.00
62849;BME280;48941;49.516;8.286;2023-02-16T04:39:37;101524.81;;;-0.12;100.00
62849;BME280;48941;49.516;8.286;2023-02-16T04:42:04;101527.34;;;-0.09;100.00
62849;BME280;48941;49.516;8.286;2023-02-16T04:44:32;101529.97;;;-0.09;100.00
62849;BME280;48941;49.516;8.286;2023-02-16T04:47:00;101531.66;;;-0.06;100.00
62849;BME280;48941;49.516;8.286;2023-02-16T04:49:28;101533.44;;;-0.08;100.00
62849;BME280;48941;49.516;8.286;2023-02-16T04:51:55;101529.94;;;-0.07;100.00
62849;BME280;48941;49.516;8.286;2023-02-16T04:54:25;101534.34;;;-0.08;100.00
62849;BME280;48941;49.516;8.286;2023-02-16T04:56:53;101520.34;;;-0.07;100.00
62849;BME280;48941;49.516;8.286;2023-02-16T04:59:20;101519.47;;;-0.06;100.00
62849;BME280;48941;49.516;8.286;2023-02-16T05:01:48;101528.09;;;-0.02;100.00
62849;BME280;48941;49.516;8.286;2023-02-16T05:04:16;101515.06;;;-0.04;100.00
62849;BME280;48941;49.516;8.286;2023-02-16T05:06:44;101517.72;;;-0.08;100.00
62849;BME280;48941;49.516;8.286;2023-02-16T05:09:12;101511.66;;;-0.10;100.00
62849;BME280;48941;49.516;8.286;2023-02-16T05:11:41;101515.16;;;-0.10;100.00
62849;BME280;48941;49.516;8.286;2023-02-16T05:14:28;101522.19;;;-0.12;100.00
62849;BME280;48941;49.516;8.286;2023-02-16T05:17:09;101523.03;;;-0.11;100.00
62849;BME280;48941;49.516;8.286;2023-02-16T05:19:37;101522.22;;;-0.13;100.00
62849;BME280;48941;49.516;8.286;2023-02-16T05:22:05;101518.75;;;-0.15;100.00
62849;BME280;48941;49.516;8.286;2023-02-16T05:24:33;101522.25;;;-0.16;100.00
62849;BME280;48941;49.516;8.286;2023-02-16T05:27:04;101530.06;;;-0.13;100.00
62849;BME280;48941;49.516;8.286;2023-02-16T05:29:33;101528.31;;;-0.13;100.00
62849;BME280;48941;49.516;8.286;2023-02-16T05:32:01;101517.78;;;-0.10;100.00
62849;BME280;48941;49.516;8.286;2023-02-16T05:34:30;101530.81;;;-0.08;100.00
62849;BME280;48941;49.516;8.286;2023-02-16T05:36:58;101533.44;;;-0.08;100.00
62849;BME280;48941;49.516;8.286;2023-02-16T05:39:26;101536.03;;;-0.07;100.00
62849;BME280;48941;49.516;8.286;2023-02-16T05:41:53;101536.03;;;-0.05;100.00
62849;BME280;48941;49.516;8.286;2023-02-16T05:44:23;101531.72;;;-0.08;100.00
62849;BME280;48941;49.516;8.286;2023-02-16T05:46:51;101526.50;;;-0.09;100.00
62849;BME280;48941;49.516;8.286;2023-02-16T05:49:18;101534.34;;;-0.08;100.00
62849;BME280;48941;49.516;8.286;2023-02-16T05:51:46;101525.53;;;-0.04;100.00
62849;BME280;48941;49.516;8.286;2023-02-16T05:54:14;101530.78;;;-0.04;100.00
62849;BME280;48941;49.516;8.286;2023-02-16T05:56:44;101535.09;;;-0.03;100.00
62849;BME280;48941;49.516;8.286;2023-02-16T05:59:12;101536.81;;;0.00;100.00
62849;BME280;48941;49.516;8.286;2023-02-16T06:01:43;101543.81;;;-0.02;100.00
62849;BME280;48941;49.516;8.286;2023-02-16T06:04:16;101543.94;;;-0.08;100.00
62849;BME280;48941;49.516;8.286;2023-02-16T06:06:44;101541.28;;;-0.07;100.00
62849;BME280;48941;49.516;8.286;2023-02-16T06:09:12;101545.69;;;-0.09;100.00
62849;BME280;48941;49.516;8.286;2023-02-16T06:11:40;101551.88;;;-0.14;100.00
62849;BME280;48941;49.516;8.286;2023-02-16T06:14:10;101552.72;;;-0.12;100.00
62849;BME280;48941;49.516;8.286;2023-02-16T06:16:40;101558.00;;;-0.14;100.00
62849;BME280;48941;49.516;8.286;2023-02-16T06:19:10;101555.28;;;-0.08;100.00
62849;BME280;48941;49.516;8.286;2023-02-16T06:21:38;101554.50;;;-0.13;100.00
62849;BME280;48941;49.516;8.286;2023-02-16T06:24:08;101558.88;;;-0.15;100.00
62849;BME280;48941;49.516;8.286;2023-02-16T06:26:36;101551.03;;;-0.15;100.00
62849;BME280;48941;49.516;8.286;2023-02-16T06:29:05;101557.97;;;-0.12;100.00
62849;BME280;48941;49.516;8.286;2023-02-16T06:31:33;101556.28;;;-0.16;100.00
62849;BME280;48941;49.516;8.286;2023-02-16T06:34:02;101560.63;;;-0.14;100.00
62849;BME280;48941;49.516;8.286;2023-02-16T06:36:32;101556.22;;;-0.12;100.00
62849;BME280;48941;49.516;8.286;2023-02-16T06:39:00;101555.31;;;-0.09;100.00
62849;BME280;48941;49.516;8.286;2023-02-16T06:41:28;101575.31;;;-0.05;100.00
62849;BME280;48941;49.516;8.286;2023-02-16T06:44:05;101567.47;;;-0.05;100.00
62849;BME280;48941;49.516;8.286;2023-02-16T06:46:33;101565.69;;;-0.03;100.00
62849;BME280;48941;49.516;8.286;2023-02-16T06:49:01;101568.25;;;0.00;100.00
62849;BME280;48941;49.516;8.286;2023-02-16T06:51:29;101575.31;;;-0.04;100.00
62849;BME280;48941;49.516;8.286;2023-02-16T06:53:58;101574.41;;;-0.04;100.00
62849;BME280;48941;49.516;8.286;2023-02-16T06:56:26;101583.91;;;0.02;100.00
62849;BME280;48941;49.516;8.286;2023-02-16T06:58:54;101580.41;;;0.04;100.00
62849;BME280;48941;49.516;8.286;2023-02-16T07:01:22;101585.66;;;0.04;100.00
62849;BME280;48941;49.516;8.286;2023-02-16T07:03:53;101585.66;;;0.04;100.00
62849;BME280;48941;49.516;8.286;2023-02-16T07:06:22;101586.53;;;0.02;100.00
62849;BME280;48941;49.516;8.286;2023-02-16T07:08:50;101581.41;;;-0.03;100.00
62849;BME280;48941;49.516;8.286;2023-02-16T07:11:20;101588.31;;;-0.01;100.00
62849;BME280;48941;49.516;8.286;2023-02-16T07:13:49;101586.59;;;0.00;100.00
62849;BME280;48941;49.516;8.286;2023-02-16T07:16:17;101591.75;;;0.03;100.00
62849;BME280;48941;49.516;8.286;2023-02-16T07:18:45;101591.66;;;0.09;100.00
62849;BME280;48941;49.516;8.286;2023-02-16T07:21:13;101585.47;;;0.13;100.00
62849;BME280;48941;49.516;8.286;2023-02-16T07:23:41;101581.03;;;0.17;100.00
62849;BME280;48941;49.516;8.286;2023-02-16T07:26:10;101579.25;;;0.21;100.00
62849;BME280;48941;49.516;8.286;2023-02-16T07:28:39;101582.69;;;0.23;100.00
62849;BME280;48941;49.516;8.286;2023-02-16T07:31:08;101574.03;;;0.17;100.00
62849;BME280;48941;49.516;8.286;2023-02-16T07:33:38;101565.22;;;0.23;100.00
62849;BME280;48941;49.516;8.286;2023-02-16T07:36:07;101580.94;;;0.23;100.00
62849;BME280;48941;49.516;8.286;2023-02-16T07:38:36;101575.66;;;0.26;100.00
62849;BME280;48941;49.516;8.286;2023-02-16T07:41:04;101577.25;;;0.32;100.00
62849;BME280;48941;49.516;8.286;2023-02-16T07:43:35;101577.31;;;0.30;100.00
62849;BME280;48941;49.516;8.286;2023-02-16T07:46:05;101575.47;;;0.35;100.00
62849;BME280;48941;49.516;8.286;2023-02-16T07:48:33;101576.25;;;0.39;100.00
62849;BME280;48941;49.516;8.286;2023-02-16T07:51:01;101591.13;;;0.38;100.00
62849;BME280;48941;49.516;8.286;2023-02-16T07:53:29;101594.50;;;0.45;100.00
62849;BME280;48941;49.516;8.286;2023-02-16T07:55:58;101594.47;;;0.47;100.00
62849;BME280;48941;49.516;8.286;2023-02-16T07:58:26;101593.63;;;0.45;100.00
62849;BME280;48941;49.516;8.286;2023-02-16T08:00:55;101583.97;;;0.48;100.00
62849;BME280;48941;49.516;8.286;2023-02-16T08:03:24;101584.00;;;0.47;100.00
62849;BME280;48941;49.516;8.286;2023-02-16T08:05:52;101584.91;;;0.44;100.00
62849;BME280;48941;49.516;8.286;2023-02-16T08:08:20;101588.25;;;0.52;100.00
62849;BME280;48941;49.516;8.286;2023-02-16T08:10:48;101586.47;;;0.54;100.00
62849;BME280;48941;49.516;8.286;2023-02-16T08:13:16;101595.16;;;0.58;100.00
62849;BME280;48941;49.516;8.286;2023-02-16T08:15:44;101599.47;;;0.59;100.00
62849;BME280;48941;49.516;8.286;2023-02-16T08:18:12;101591.63;;;0.59;100.00
62849;BME280;48941;49.516;8.286;2023-02-16T08:20:42;101595.09;;;0.59;100.00
62849;BME280;48941;49.516;8.286;2023-02-16T08:23:30;101588.13;;;0.60;100.00
62849;BME280;48941;49.516;8.286;2023-02-16T08:25:57;101580.13;;;0.66;100.00
62849;BME280;48941;49.516;8.286;2023-02-16T08:28:26;101582.66;;;0.69;100.00
62849;BME280;48941;49.516;8.286;2023-02-16T08:30:55;101580.88;;;0.71;100.00
62849;BME280;48941;49.516;8.286;2023-02-16T08:33:23;101587.88;;;0.72;100.00
62849;BME280;48941;49.516;8.286;2023-02-16T08:35:52;101581.56;;;0.81;100.00
62849;BME280;48941;49.516;8.286;2023-02-16T08:38:20;101570.13;;;0.84;100.00
62849;BME280;48941;49.516;8.286;2023-02-16T08:40:48;101576.19;;;0.86;100.00
62849;BME280;48941;49.516;8.286;2023-02-16T08:43:17;101584.03;;;0.89;100.00
62849;BME280;48941;49.516;8.286;2023-02-16T08:45:45;101564.75;;;0.90;100.00
62849;BME280;48941;49.516;8.286;2023-02-16T08:48:14;101579.59;;;0.92;100.00
62849;BME280;48941;49.516;8.286;2023-02-16T08:50:43;101582.06;;;0.98;100.00
62849;BME280;48941;49.516;8.286;2023-02-16T08:53:14;101579.47;;;0.97;100.00
62849;BME280;48941;49.516;8.286;2023-02-16T08:55:42;101586.41;;;0.99;100.00
62849;BME280;48941;49.516;8.286;2023-02-16T08:58:17;101593.69;;;0.87;100.00
62849;BME280;48941;49.516;8.286;2023-02-16T09:00:45;101587.44;;;0.94;100.00
62849;BME280;48941;49.516;8.286;2023-02-16T09:03:13;101589.91;;;1.00;100.00
62849;BME280;48941;49.516;8.286;2023-02-16T09:05:42;101601.16;;;1.05;100.00
62849;BME280;48941;49.516;8.286;2023-02-16T09:08:10;101595.81;;;1.10;100.00
62849;BME280;48941;49.516;8.286;2023-02-16T09:10:39;101609.66;;;1.18;100.00
62849;BME280;48941;49.516;8.286;2023-02-16T09:13:07;101602.47;;;1.26;100.00
62849;BME280;48941;49.516;8.286;2023-02-16T09:15:39;101598.00;;;1.30;100.00
62849;BME280;48941;49.516;8.286;2023-02-16T09:18:08;101588.22;;;1.38;100.00
62849;BME280;48941;49.516;8.286;2023-02-16T09:20:38;101586.34;;;1.42;100.00
62849;BME280;48941;49.516;8.286;2023-02-16T09:23:10;101593.19;;;1.49;100.00
62849;BME280;48941;49.516;8.286;2023-02-16T09:25:40;101595.78;;;1.52;100.00
62849;BME280;48941;49.516;8.286;2023-02-16T09:28:09;101597.47;;;1.54;100.00
62849;BME280;48941;49.516;8.286;2023-02-16T09:30:37;101588.63;;;1.57;100.00
62849;BME280;48941;49.516;8.286;2023-02-16T09:33:06;101586.03;;;1.55;100.00
62849;BME280;48941;49.516;8.286;2023-02-16T09:35:33;101584.16;;;1.62;100.00
62849;BME280;48941;49.516;8.286;2023-02-16T09:38:01;101583.09;;;1.69;100.00
62849;BME280;48941;49.516;8.286;2023-02-16T09:40:29;101588.19;;;1.75;100.00
62849;BME280;48941;49.516;8.286;2023-02-16T09:43:05;101587.31;;;1.76;100.00
62849;BME280;48941;49.516;8.286;2023-02-16T09:45:40;101588.09;;;1.80;100.00
62849;BME280;48941;49.516;8.286;2023-02-16T09:48:19;101580.84;;;1.90;100.00
62849;BME280;48941;49.516;8.286;2023-02-16T09:50:49;101585.16;;;1.92;100.00
62849;BME280;48941;49.516;8.286;2023-02-16T09:53:26;101582.25;;;2.03;100.00
62849;BME280;48941;49.516;8.286;2023-02-16T09:55:59;101580.41;;;2.07;100.00
62849;BME280;48941;49.516;8.286;2023-02-16T09:58:39;101579.53;;;2.08;100.00
62849;BME280;48941;49.516;8.286;2023-02-16T10:01:17;101578.47;;;2.13;100.00
62849;BME280;48941;49.516;8.286;2023-02-16T10:03:53;101577.50;;;2.17;100.00
62849;BME280;48941;49.516;8.286;2023-02-16T10:06:33;101575.44;;;2.29;100.00
62849;BME280;48941;49.516;8.286;2023-02-16T10:09:06;101582.97;;;2.43;100.00
62849;BME280;48941;49.516;8.286;2023-02-16T10:11:37;101581.81;;;2.53;100.00
62849;BME280;48941;49.516;8.286;2023-02-16T10:14:30;101589.56;;;2.57;100.00
62849;BME280;48941;49.516;8.286;2023-02-16T10:17:05;101577.97;;;2.65;100.00
62849;BME280;48941;49.516;8.286;2023-02-16T10:19:37;101577.63;;;2.77;100.00
62849;BME280;48941;49.516;8.286;2023-02-16T10:22:11;101574.81;;;2.83;100.00
62849;BME280;48941;49.516;8.286;2023-02-16T10:24:47;101570.25;;;2.90;100.00
62849;BME280;48941;49.516;8.286;2023-02-16T10:27:20;101564.44;;;3.08;100.00
62849;BME280;48941;49.516;8.286;2023-02-16T10:29:50;101564.88;;;3.23;99.95
62849;BME280;48941;49.516;8.286;2023-02-16T10:32:24;101561.53;;;3.46;99.13
62849;BME280;48941;49.516;8.286;2023-02-16T10:35:00;101562.84;;;3.59;98.91
62849;BME280;48941;49.516;8.286;2023-02-16T10:37:43;101562.44;;;3.71;97.66
62849;BME280;48941;49.516;8.286;2023-02-16T10:40:21;101555.09;;;3.81;97.10
62849;BME280;48941;49.516;8.286;2023-02-16T10:42:56;101551.19;;;3.93;96.38
62849;BME280;48941;49.516;8.286;2023-02-16T10:45:30;101552.78;;;3.97;95.86
62849;BME280;48941;49.516;8.286;2023-02-16T10:47:59;101543.47;;;4.13;96.56
62849;BME280;48941;49.516;8.286;2023-02-16T10:50:30;101536.94;;;4.24;94.78
62849;BME280;48941;49.516;8.286;2023-02-16T10:53:03;101541.56;;;4.42;94.87
62849;BME280;48941;49.516;8.286;2023-02-16T10:55:33;101540.59;;;4.68;93.24
62849;BME280;48941;49.516;8.286;2023-02-16T10:58:01;101532.84;;;4.87;91.72
62849;BME280;48941;49.516;8.286;2023-02-16T11:00:44;101534.78;;;5.06;90.29
62849;BME280;48941;49.516;8.286;2023-02-16T11:03:15;101524.34;;;5.03;90.11
62849;BME280;48941;49.516;8.286;2023-02-16T11:05:43;101517.44;;;4.98;90.96
62849;BME280;48941;49.516;8.286;2023-02-16T11:08:12;101520.06;;;5.22;91.04
62849;BME280;48941;49.516;8.286;2023-02-16T11:10:42;101516.06;;;5.34;90.23
62849;BME280;48941;49.516;8.286;2023-02-16T11:13:21;101507.16;;;5.36;89.77
62849;BME280;48941;49.516;8.286;2023-02-16T11:15:57;101511.06;;;5.48;88.98
62849;BME280;48941;49.516;8.286;2023-02-16T11:18:30;101511.19;;;5.67;88.69
62849;BME280;48941;49.516;8.286;2023-02-16T11:21:00;101507.88;;;5.83;88.22
62849;BME280;48941;49.516;8.286;2023-02-16T11:23:30;101499.03;;;5.84;87.71
62849;BME280;48941;49.516;8.286;2023-02-16T11:26:01;101497.03;;;5.89;88.21
62849;BME280;48941;49.516;8.286;2023-02-16T11:28:33;101490.59;;;5.96;87.33
62849;BME280;48941;49.516;8.286;2023-02-16T11:31:14;101475.03;;;6.09;87.63
62849;BME280;48941;49.516;8.286;2023-02-16T11:33:54;101478.28;;;6.15;87.33
62849;BME280;48941;49.516;8.286;2023-02-16T11:36:28;101470.22;;;6.18;87.44
62849;BME280;48941;49.516;8.286;2023-02-16T11:39:01;101462.50;;;6.33;87.42
62849;BME280;48941;49.516;8.286;2023-02-16T11:41:30;101458.53;;;6.43;86.67
62849;BME280;48941;49.516;8.286;2023-02-16T11:44:00;101464.84;;;6.60;86.58
62849;BME280;48941;49.516;8.286;2023-02-16T11:46:38;101466.84;;;6.73;86.25
62849;BME280;48941;49.516;8.286;2023-02-16T11:49:29;101464.69;;;6.82;85.47
62849;BME280;48941;49.516;8.286;2023-02-16T11:51:57;101469.97;;;6.82;85.48
62849;BME280;48941;49.516;8.286;2023-02-16T11:54:25;101458.00;;;6.73;86.17
62849;BME280;48941;49.516;8.286;2023-02-16T11:57:05;101454.38;;;6.75;86.57
62849;BME280;48941;49.516;8.286;2023-02-16T11:59:36;101460.31;;;6.81;86.22
62849;BME280;48941;49.516;8.286;2023-02-16T12:02:37;101455.59;;;6.87;86.78
62849;BME280;48941;49.516;8.286;2023-02-16T12:05:22;101452.84;;;6.89;86.78
62849;BME280;48941;49.516;8.286;2023-02-16T12:08:03;101448.44;;;6.89;86.95
62849;BME280;48941;49.516;8.286;2023-02-16T12:10:39;101453.94;;;6.85;87.48
62849;BME280;48941;49.516;8.286;2023-02-16T12:13:17;101447.41;;;6.73;88.27
62849;BME280;48941;49.516;8.286;2023-02-16T12:15:52;101450.38;;;6.67;88.67
62849;BME280;48941;49.516;8.286;2023-02-16T12:18:29;101435.31;;;6.86;88.31
62849;BME280;48941;49.516;8.286;2023-02-16T12:21:11;101434.69;;;6.81;88.21
62849;BME280;48941;49.516;8.286;2023-02-16T12:23:53;101434.72;;;6.98;88.47
62849;BME280;48941;49.516;8.286;2023-02-16T12:26:31;101422.25;;;7.20;88.00
62849;BME280;48941;49.516;8.286;2023-02-16T12:29:13;101421.56;;;7.33;87.49
62849;BME280;48941;49.516;8.286;2023-02-16T12:32:06;101418.13;;;7.31;87.38
62849;BME280;48941;49.516;8.286;2023-02-16T12:34:47;101422.81;;;7.44;87.26
62849;BME280;48941;49.516;8.286;2023-02-16T12:37:24;101418.28;;;7.46;86.94
62849;BME280;48941;49.516;8.286;2023-02-16T12:40:05;101410.78;;;7.36;87.87
62849;BME280;48941;49.516;8.286;2023-02-16T12:43:08;101417.63;;;7.41;88.22
62849;BME280;48941;49.516;8.286;2023-02-16T12:45:41;101408.53;;;7.46;88.06
62849;BME280;48941;49.516;8.286;2023-02-16T12:48:32;101406.66;;;7.66;87.49
62849;BME280;48941;49.516;8.286;2023-02-16T12:51:08;101403.88;;;7.85;87.29
62849;BME280;48941;49.516;8.286;2023-02-16T12:53:42;101397.38;;;8.08;86.45
62849;BME280;48941;49.516;8.286;2023-02-16T12:56:16;101384.41;;;8.35;85.54
62849;BME280;48941;49.516;8.286;2023-02-16T12:58:50;101382.59;;;8.35;83.39
62849;BME280;48941;49.516;8.286;2023-02-16T13:01:24;101382.41;;;8.23;84.42
62849;BME280;48941;49.516;8.286;2023-02-16T13:03:56;101375.38;;;8.06;85.05
62849;BME280;48941;49.516;8.286;2023-02-16T13:06:30;101373.13;;;7.98;85.76
62849;BME280;48941;49.516;8.286;2023-02-16T13:09:10;101365.50;;;7.92;86.69
62849;BME280;48941;49.516;8.286;2023-02-16T13:11:46;101376.19;;;7.90;87.08
62849;BME280;48941;49.516;8.286;2023-02-16T13:14:20;101360.50;;;7.86;87.30
62849;BME280;48941;49.516;8.286;2023-02-16T13:16:51;101365.31;;;7.79;87.72
62849;BME280;48941;49.516;8.286;2023-02-16T13:19:20;101355.78;;;7.75;88.23